Time;durP1;ratioP1;P1;durP2;ratioP2;P2;SDS_P1;SDS_P2;PMS_P1;PMS_P2;Temp;Humidity;BMP_temperature;BMP_pressure;BME280_temperature;BME280_humidity;BME280_pressure;Samples;Min_cycle;Max_cycle;Signal;HPM_P1;HPM_P2
2022/05/12 00:01:26;;;;;;;;;;;19.00;99.90;;;;;;4592838;19;19926;-27
2022/05/12 00:02:57;;;;;;;;;;;19.10;99.90;;;;;;4592554;19;20003;-28
2022/05/12 00:04:29;;;;;;;;;;;19.20;99.90;;;;;;4590598;19;19985;-27
2022/05/12 00:06:00;;;;;;;;;;;19.20;99.90;;;;;;4592584;19;19918;-28
2022/05/12 00:07:31;;;;;;;;;;;19.30;99.90;;;;;;4591841;19;19978;-29
2022/05/12 00:09:02;;;;;;;;;;;19.30;99.90;;;;;;4592480;19;19935;-28
2022/05/12 00:10:33;;;;;;;;;;;19.30;99.90;;;;;;4590611;19;19919;-28
2022/05/12 00:12:04;;;;;;;;;;;19.40;99.90;;;;;;4592872;19;19911;-26
2022/05/12 00:13:35;;;;;;;;;;;19.40;99.90;;;;;;4591504;19;19929;-27
2022/05/12 00:15:07;;;;;;;;;;;19.40;99.90;;;;;;4591365;19;19915;-28
2022/05/12 00:16:38;;;;;;;;;;;19.50;99.90;;;;;;4592364;19;19931;-29
2022/05/12 00:18:09;;;;;;;;;;;19.50;99.90;;;;;;4591843;19;19919;-29
2022/05/12 00:19:40;;;;;;;;;;;19.60;99.90;;;;;;4592246;19;19914;-28
2022/05/12 00:21:11;;;;;;;;;;;19.60;99.90;;;;;;4591456;19;20373;-31
2022/05/12 00:22:42;;;;;;;;;;;19.60;99.90;;;;;;4592966;19;19928;-29
2022/05/12 00:24:16;;;;;;;;;;;19.70;99.90;;;;;;4590949;19;19922;-29
2022/05/12 00:25:47;;;;;;;;;;;19.70;99.90;;;;;;4590825;19;19938;-28
2022/05/12 00:27:18;;;;;;;;;;;19.70;99.90;;;;;;4591643;19;19919;-28
2022/05/12 00:28:50;;;;;;;;;;;19.70;99.90;;;;;;4591065;19;20333;-26
2022/05/12 00:30:21;;;;;;;;;;;19.70;99.90;;;;;;4592088;19;20326;-28
2022/05/12 00:31:52;;;;;;;;;;;19.80;99.90;;;;;;4590548;19;19923;-29
2022/05/12 00:33:27;;;;;;;;;;;19.80;99.90;;;;;;4591136;19;19915;-29
2022/05/12 00:35:02;;;;;;;;;;;19.80;99.90;;;;;;4592593;19;19942;-28
2022/05/12 00:36:34;;;;;;;;;;;19.80;99.90;;;;;;4591241;19;19919;-28
2022/05/12 00:38:05;;;;;;;;;;;19.90;99.90;;;;;;4593161;19;19910;-28
2022/05/12 00:39:39;;;;;;;;;;;19.90;99.90;;;;;;4591642;19;19978;-26
2022/05/12 00:41:11;;;;;;;;;;;19.90;99.90;;;;;;4590929;19;19911;-29
2022/05/12 00:43:05;;;;;;;;;;;19.90;99.90;;;;;;4590255;19;19925;-25
2022/05/12 00:44:37;;;;;;;;;;;20.20;99.90;;;;;;4590671;19;19922;-28
2022/05/12 00:46:10;;;;;;;;;;;20.40;99.90;;;;;;4591726;19;20253;-28
2022/05/12 00:47:41;;;;;;;;;;;20.40;99.90;;;;;;4590582;19;19922;-28
2022/05/12 00:49:30;;;;;;;;;;;20.40;99.90;;;;;;4592276;19;19911;-27
2022/05/12 00:51:01;;;;;;;;;;;20.50;99.90;;;;;;4590061;19;19918;-28
2022/05/12 00:52:32;;;;;;;;;;;20.50;99.90;;;;;;4591601;19;19925;-28
2022/05/12 00:54:04;;;;;;;;;;;20.50;99.90;;;;;;4588942;19;19923;-29
2022/05/12 00:55:36;;;;;;;;;;;20.40;99.90;;;;;;4591280;19;19914;-28
2022/05/12 00:57:08;;;;;;;;;;;20.40;99.90;;;;;;4596361;19;19915;-27
2022/05/12 00:58:39;;;;;;;;;;;20.40;99.90;;;;;;4594708;19;20250;-28
2022/05/12 01:00:11;;;;;;;;;;;20.40;99.90;;;;;;4595807;19;19910;-27
2022/05/12 01:01:42;;;;;;;;;;;20.40;99.90;;;;;;4593799;19;20351;-27
2022/05/12 01:03:15;;;;;;;;;;;20.40;99.90;;;;;;4595579;19;19915;-27
2022/05/12 01:04:47;;;;;;;;;;;20.30;99.90;;;;;;4595054;19;19919;-29
2022/05/12 01:06:18;;;;;;;;;;;20.30;99.90;;;;;;4595982;19;19922;-28
2022/05/12 01:09:38;;;;;;;;;;;20.40;99.90;;;;;;4594646;19;19922;-28
2022/05/12 01:11:11;;;;;;;;;;;20.40;99.90;;;;;;4595732;19;19978;-28
2022/05/12 01:12:43;;;;;;;;;;;20.40;99.90;;;;;;4594700;19;19930;-31
2022/05/12 01:14:14;;;;;;;;;;;20.40;99.90;;;;;;4595678;19;19949;-27
2022/05/12 01:15:49;;;;;;;;;;;20.40;99.90;;;;;;4594690;19;19914;-28
2022/05/12 01:17:20;;;;;;;;;;;20.30;99.90;;;;;;4595552;19;19927;-28
2022/05/12 01:18:51;;;;;;;;;;;20.40;99.90;;;;;;4595498;19;19947;-28
2022/05/12 01:20:25;;;;;;;;;;;20.40;99.90;;;;;;4594401;19;19918;-28
2022/05/12 01:21:56;;;;;;;;;;;20.40;99.90;;;;;;4596292;19;19914;-27
2022/05/12 01:23:37;;;;;;;;;;;20.40;99.90;;;;;;4595408;19;19918;-27
2022/05/12 01:25:09;;;;;;;;;;;20.40;99.90;;;;;;4595941;19;19923;-27
2022/05/12 01:26:40;;;;;;;;;;;20.40;99.90;;;;;;4594055;19;19925;-27
2022/05/12 01:28:11;;;;;;;;;;;20.40;99.90;;;;;;4593995;19;19919;-28
2022/05/12 01:31:50;;;;;;;;;;;20.40;99.90;;;;;;4593581;19;19934;-28
2022/05/12 01:33:21;;;;;;;;;;;20.40;99.90;;;;;;4595473;19;19914;-30
2022/05/12 01:34:52;;;;;;;;;;;20.40;99.90;;;;;;4595030;19;19926;-29
2022/05/12 01:36:23;;;;;;;;;;;20.40;99.90;;;;;;4594729;19;19922;-26
2022/05/12 01:37:54;;;;;;;;;;;20.40;99.90;;;;;;4595544;19;19918;-29
2022/05/12 01:39:25;;;;;;;;;;;20.40;99.90;;;;;;4594075;19;19922;-26
2022/05/12 01:40:56;;;;;;;;;;;20.40;99.90;;;;;;4595417;19;19919;-29
2022/05/12 01:42:27;;;;;;;;;;;20.40;99.90;;;;;;4595221;19;19948;-29
2022/05/12 01:44:00;;;;;;;;;;;20.30;99.90;;;;;;4593758;19;19926;-28
2022/05/12 01:45:31;;;;;;;;;;;20.30;99.90;;;;;;4595583;19;19918;-31
2022/05/12 01:47:02;;;;;;;;;;;20.40;99.90;;;;;;4594632;19;19919;-28
2022/05/12 01:48:33;;;;;;;;;;;20.40;99.80;;;;;;4593965;19;19932;-25
2022/05/12 01:50:04;;;;;;;;;;;20.40;99.80;;;;;;4595573;19;19915;-27
2022/05/12 01:51:38;;;;;;;;;;;20.40;99.80;;;;;;4594453;19;19941;-25
2022/05/12 01:53:12;;;;;;;;;;;20.40;99.80;;;;;;4594454;19;19914;-26
2022/05/12 01:54:42;;;;;;;;;;;20.40;99.70;;;;;;4595208;19;19918;-27
2022/05/12 01:56:19;;;;;;;;;;;20.40;99.70;;;;;;4595475;19;19934;-28
2022/05/12 01:57:50;;;;;;;;;;;20.40;99.60;;;;;;4594914;19;20345;-27
2022/05/12 01:59:21;;;;;;;;;;;20.40;99.60;;;;;;4592771;19;19915;-27
2022/05/12 02:00:52;;;;;;;;;;;20.40;99.60;;;;;;4594968;19;19911;-32
2022/05/12 02:02:24;;;;;;;;;;;20.40;99.60;;;;;;4593005;19;19952;-30
2022/05/12 02:03:55;;;;;;;;;;;20.40;99.50;;;;;;4594293;19;20333;-28
2022/05/12 02:05:26;;;;;;;;;;;20.40;99.50;;;;;;4593345;19;19986;-28
2022/05/12 02:06:56;;;;;;;;;;;20.40;99.50;;;;;;4593405;19;19923;-28
2022/05/12 02:08:27;;;;;;;;;;;20.40;99.50;;;;;;4594277;19;20375;-28
2022/05/12 02:09:58;;;;;;;;;;;20.40;99.70;;;;;;4593739;19;19919;-27
2022/05/12 02:11:29;;;;;;;;;;;20.40;99.40;;;;;;4595460;19;20348;-27
2022/05/12 02:13:00;;;;;;;;;;;20.40;99.40;;;;;;4593584;19;19923;-26
2022/05/12 02:14:32;;;;;;;;;;;20.40;99.40;;;;;;4591266;19;19938;-26
2022/05/12 02:16:03;;;;;;;;;;;20.50;99.40;;;;;;4594386;19;19936;-28
2022/05/12 02:17:33;;;;;;;;;;;20.50;99.40;;;;;;4592912;19;20602;-28
2022/05/12 02:19:05;;;;;;;;;;;20.50;99.30;;;;;;4593751;19;19986;-25
2022/05/12 02:20:36;;;;;;;;;;;20.50;99.40;;;;;;4593196;19;19918;-29
2022/05/12 02:22:09;;;;;;;;;;;20.50;99.30;;;;;;4595245;19;20304;-30
2022/05/12 02:23:40;;;;;;;;;;;20.40;99.30;;;;;;4593636;19;19921;-28
2022/05/12 02:25:11;;;;;;;;;;;20.50;99.30;;;;;;4594520;19;19923;-28
2022/05/12 02:26:42;;;;;;;;;;;20.40;99.20;;;;;;4594431;19;19919;-27
2022/05/12 02:28:14;;;;;;;;;;;20.50;99.30;;;;;;4594963;19;19932;-28
2022/05/12 02:29:45;;;;;;;;;;;20.50;99.20;;;;;;4593814;19;20333;-27
2022/05/12 02:31:16;;;;;;;;;;;20.60;99.10;;;;;;4592130;19;19936;-30
2022/05/12 02:32:48;;;;;;;;;;;20.60;99.10;;;;;;4594734;19;19915;-28
2022/05/12 02:34:18;;;;;;;;;;;20.60;99.00;;;;;;4593986;19;20318;-28
2022/05/12 02:35:49;;;;;;;;;;;20.60;99.00;;;;;;4594633;19;19918;-28
2022/05/12 02:37:20;;;;;;;;;;;20.70;99.00;;;;;;4593375;19;19921;-28
2022/05/12 02:38:51;;;;;;;;;;;20.70;98.90;;;;;;4594530;19;19918;-27
2022/05/12 02:40:23;;;;;;;;;;;20.70;98.90;;;;;;4594650;19;19943;-28
2022/05/12 02:41:53;;;;;;;;;;;20.70;98.90;;;;;;4592132;19;20341;-28
2022/05/12 02:43:24;;;;;;;;;;;20.70;98.80;;;;;;4593821;19;19915;-27
2022/05/12 02:44:56;;;;;;;;;;;20.70;98.80;;;;;;4593141;19;19919;-32
2022/05/12 02:46:26;;;;;;;;;;;20.80;99.00;;;;;;4593935;19;19918;-28
2022/05/12 02:47:57;;;;;;;;;;;20.80;98.80;;;;;;4593088;19;20330;-30
2022/05/12 02:49:28;;;;;;;;;;;20.80;98.80;;;;;;4593809;19;19918;-29
2022/05/12 02:50:59;;;;;;;;;;;20.80;98.70;;;;;;4592089;19;19923;-31
2022/05/12 02:52:30;;;;;;;;;;;20.80;98.70;;;;;;4591825;19;19925;-28
2022/05/12 02:54:01;;;;;;;;;;;20.80;98.80;;;;;;4590726;19;19923;-32
2022/05/12 02:55:32;;;;;;;;;;;20.80;98.70;;;;;;4590739;19;19921;-32
2022/05/12 02:57:03;;;;;;;;;;;20.80;98.70;;;;;;4591330;19;19922;-33
2022/05/12 02:58:34;;;;;;;;;;;20.90;98.70;;;;;;4591801;19;20218;-29
2022/05/12 03:00:06;;;;;;;;;;;20.90;98.70;;;;;;4591864;19;19915;-29
2022/05/12 03:01:37;;;;;;;;;;;20.90;98.60;;;;;;4590735;19;19915;-33
2022/05/12 03:03:08;;;;;;;;;;;20.80;98.60;;;;;;4591458;19;19922;-30
2022/05/12 03:04:39;;;;;;;;;;;20.90;98.60;;;;;;4592236;19;19922;-27
2022/05/12 03:06:10;;;;;;;;;;;20.90;98.60;;;;;;4592000;19;19923;-26
2022/05/12 03:07:41;;;;;;;;;;;20.90;98.60;;;;;;4592354;19;20238;-31
2022/05/12 03:09:12;;;;;;;;;;;20.90;98.60;;;;;;4591604;19;19922;-28
2022/05/12 03:10:43;;;;;;;;;;;20.90;98.50;;;;;;4591767;19;19917;-26
2022/05/12 03:12:14;;;;;;;;;;;20.90;98.50;;;;;;4592504;19;19930;-28
2022/05/12 03:13:45;;;;;;;;;;;21.00;98.50;;;;;;4590534;19;19911;-28
2022/05/12 03:15:16;;;;;;;;;;;21.00;98.50;;;;;;4590547;19;20325;-28
2022/05/12 03:16:47;;;;;;;;;;;21.00;98.50;;;;;;4590512;19;19925;-28
2022/05/12 03:18:18;;;;;;;;;;;21.00;98.50;;;;;;4591248;19;19929;-29
2022/05/12 03:19:49;;;;;;;;;;;20.90;98.50;;;;;;4589868;19;19922;-28
2022/05/12 03:21:20;;;;;;;;;;;20.90;98.40;;;;;;4591438;19;20323;-27
2022/05/12 03:22:51;;;;;;;;;;;21.00;98.50;;;;;;4591909;19;19919;-27
2022/05/12 03:24:22;;;;;;;;;;;21.00;98.50;;;;;;4591233;19;20325;-28
2022/05/12 03:25:53;;;;;;;;;;;20.90;98.40;;;;;;4591431;19;20257;-27
2022/05/12 03:27:25;;;;;;;;;;;20.90;98.50;;;;;;4591521;19;19919;-28
2022/05/12 03:28:56;;;;;;;;;;;20.90;98.50;;;;;;4591777;19;19978;-27
2022/05/12 03:30:27;;;;;;;;;;;20.90;98.50;;;;;;4590097;19;19914;-28
2022/05/12 03:31:58;;;;;;;;;;;20.90;98.60;;;;;;4590727;19;19974;-28
2022/05/12 03:33:29;;;;;;;;;;;20.90;98.50;;;;;;4591097;19;19918;-26
2022/05/12 03:35:00;;;;;;;;;;;20.90;98.60;;;;;;4591335;19;19948;-29
2022/05/12 03:36:35;;;;;;;;;;;21.00;98.50;;;;;;4591071;19;20274;-27
2022/05/12 03:38:06;;;;;;;;;;;20.90;98.50;;;;;;4590174;19;20363;-27
2022/05/12 03:39:39;;;;;;;;;;;21.00;98.40;;;;;;4591259;19;19915;-28
2022/05/12 03:41:09;;;;;;;;;;;21.00;98.50;;;;;;4591699;19;19981;-26
2022/05/12 03:42:41;;;;;;;;;;;21.10;98.40;;;;;;4590826;19;19922;-30
2022/05/12 03:46:02;;;;;;;;;;;21.10;98.30;;;;;;4591346;19;19914;-29
2022/05/12 03:47:33;;;;;;;;;;;21.10;98.30;;;;;;4591804;19;19955;-29
2022/05/12 03:49:04;;;;;;;;;;;21.10;98.30;;;;;;4590729;19;19914;-28
2022/05/12 03:50:35;;;;;;;;;;;21.10;98.20;;;;;;4589985;19;19919;-29
2022/05/12 03:52:07;;;;;;;;;;;21.20;98.20;;;;;;4590529;19;20355;-27
2022/05/12 03:53:38;;;;;;;;;;;21.10;98.20;;;;;;4590812;19;19915;-27
2022/05/12 03:55:11;;;;;;;;;;;21.10;98.20;;;;;;4590647;19;19952;-29
2022/05/12 03:56:43;;;;;;;;;;;21.10;98.20;;;;;;4591280;19;19919;-27
2022/05/12 03:58:14;;;;;;;;;;;21.10;98.20;;;;;;4590593;19;19942;-30
2022/05/12 03:59:48;;;;;;;;;;;21.10;98.20;;;;;;4590980;19;19914;-28
2022/05/12 04:01:18;;;;;;;;;;;21.10;98.20;;;;;;4589660;19;19914;-27
2022/05/12 04:02:49;;;;;;;;;;;21.10;98.10;;;;;;4590306;19;20347;-29
2022/05/12 04:04:21;;;;;;;;;;;21.10;98.20;;;;;;4591209;19;19998;-32
2022/05/12 04:05:51;;;;;;;;;;;21.20;98.10;;;;;;4590574;19;19924;-30
2022/05/12 04:07:22;;;;;;;;;;;21.10;98.10;;;;;;4590552;19;20312;-28
2022/05/12 04:08:53;;;;;;;;;;;21.10;98.20;;;;;;4590958;19;20353;-27
2022/05/12 04:10:24;;;;;;;;;;;21.20;98.20;;;;;;4590208;19;19926;-29
2022/05/12 04:11:55;;;;;;;;;;;21.20;98.20;;;;;;4589317;19;19925;-27
2022/05/12 04:13:26;;;;;;;;;;;21.20;98.20;;;;;;4589753;19;19915;-31
2022/05/12 04:14:59;;;;;;;;;;;21.20;98.10;;;;;;4590596;19;19922;-27
2022/05/12 04:16:32;;;;;;;;;;;21.20;98.20;;;;;;4591030;19;19914;-32
2022/05/12 04:18:03;;;;;;;;;;;21.20;98.20;;;;;;4590481;19;20321;-27
2022/05/12 04:19:34;;;;;;;;;;;21.10;98.20;;;;;;4589441;19;19922;-28
2022/05/12 04:21:05;;;;;;;;;;;21.10;98.10;;;;;;4590321;19;19910;-29
2022/05/12 04:22:37;;;;;;;;;;;21.10;98.10;;;;;;4590591;19;19962;-28
2022/05/12 04:25:57;;;;;;;;;;;21.10;98.10;;;;;;4589057;19;19952;-28
2022/05/12 04:27:28;;;;;;;;;;;21.10;98.10;;;;;;4590156;19;19919;-28
2022/05/12 04:29:00;;;;;;;;;;;21.10;98.10;;;;;;4590525;19;19935;-27
2022/05/12 04:30:30;;;;;;;;;;;21.10;98.20;;;;;;4590581;19;19919;-29
2022/05/12 04:32:01;;;;;;;;;;;21.10;98.20;;;;;;4596751;19;19936;-32
2022/05/12 04:35:23;;;;;;;;;;;21.10;98.30;;;;;;4592841;19;20637;-29
2022/05/12 04:36:54;;;;;;;;;;;21.10;98.30;;;;;;4594511;19;19910;-28
2022/05/12 04:38:26;;;;;;;;;;;21.10;98.20;;;;;;4594839;19;19942;-29
2022/05/12 04:40:23;;;;;;;;;;;21.10;98.30;;;;;;4594790;19;20333;-29
2022/05/12 04:41:55;;;;;;;;;;;21.10;98.20;;;;;;4594482;19;20341;-26
2022/05/12 04:43:27;;;;;;;;;;;21.10;98.20;;;;;;4594862;19;19939;-28
2022/05/12 04:44:58;;;;;;;;;;;21.10;98.50;;;;;;4593574;19;19932;-29
2022/05/12 04:46:29;;;;;;;;;;;21.10;98.20;;;;;;4594552;19;19906;-32
2022/05/12 04:48:00;;;;;;;;;;;21.10;98.20;;;;;;4594555;19;19922;-28
2022/05/12 04:49:31;;;;;;;;;;;21.10;98.20;;;;;;4594296;19;19936;-28
2022/05/12 04:51:03;;;;;;;;;;;21.10;98.30;;;;;;4594460;19;19938;-30
2022/05/12 04:52:34;;;;;;;;;;;21.10;98.30;;;;;;4594862;19;19947;-29
2022/05/12 04:54:09;;;;;;;;;;;21.00;98.30;;;;;;4593670;19;19919;-27
2022/05/12 04:55:40;;;;;;;;;;;21.00;98.40;;;;;;4594171;19;19915;-28
2022/05/12 04:57:11;;;;;;;;;;;21.10;98.40;;;;;;4594284;19;19915;-29
2022/05/12 04:58:42;;;;;;;;;;;21.10;98.30;;;;;;4594507;19;19918;-28
2022/05/12 05:00:18;;;;;;;;;;;21.10;98.40;;;;;;4595186;19;19922;-29
2022/05/12 05:01:49;;;;;;;;;;;21.10;98.30;;;;;;4594510;19;19919;-28
2022/05/12 05:03:20;;;;;;;;;;;21.10;98.30;;;;;;4594460;19;19915;-28
2022/05/12 05:04:51;;;;;;;;;;;21.10;98.50;;;;;;4594616;19;19906;-29
2022/05/12 05:06:22;;;;;;;;;;;21.20;98.20;;;;;;4594751;19;19952;-28
2022/05/12 05:09:43;;;;;;;;;;;21.30;98.10;;;;;;4594002;19;19966;-28
2022/05/12 05:11:14;;;;;;;;;;;21.40;98.10;;;;;;4594492;19;19991;-32
2022/05/12 05:12:45;;;;;;;;;;;21.50;97.80;;;;;;4594311;19;19911;-29
2022/05/12 05:14:16;;;;;;;;;;;21.60;97.60;;;;;;4592468;19;19915;-29
2022/05/12 05:15:47;;;;;;;;;;;21.60;97.60;;;;;;4594295;19;20253;-30
2022/05/12 05:17:18;;;;;;;;;;;21.70;97.60;;;;;;4592798;19;19930;-29
2022/05/12 05:18:49;;;;;;;;;;;21.70;97.60;;;;;;4593789;19;19918;-28
2022/05/12 05:20:24;;;;;;;;;;;21.70;97.50;;;;;;4594295;19;19978;-28
2022/05/12 05:21:55;;;;;;;;;;;21.70;97.50;;;;;;4594235;19;19926;-28
2022/05/12 05:23:26;;;;;;;;;;;21.80;97.60;;;;;;4594373;19;19915;-29
2022/05/12 05:24:57;;;;;;;;;;;21.80;97.30;;;;;;4593665;19;19922;-27
2022/05/12 05:26:28;;;;;;;;;;;21.80;97.90;;;;;;4593976;19;19936;-29
2022/05/12 05:27:59;;;;;;;;;;;21.80;97.30;;;;;;4593860;19;19914;-27
2022/05/12 05:29:30;;;;;;;;;;;21.90;97.50;;;;;;4593120;19;20325;-29
2022/05/12 05:31:01;;;;;;;;;;;21.80;98.30;;;;;;4592382;19;19935;-29
2022/05/12 05:32:32;;;;;;;;;;;21.80;97.70;;;;;;4593914;19;19919;-30
2022/05/12 05:34:03;;;;;;;;;;;21.80;99.80;;;;;;4592707;19;19914;-28
2022/05/12 05:35:34;;;;;;;;;;;21.90;97.80;;;;;;4593596;19;20377;-29
2022/05/12 05:37:05;;;;;;;;;;;21.90;97.70;;;;;;4593573;19;19923;-28
2022/05/12 05:38:36;;;;;;;;;;;21.90;97.60;;;;;;4593899;19;19937;-28
2022/05/12 05:40:07;;;;;;;;;;;21.90;98.00;;;;;;4593682;19;19915;-28
2022/05/12 05:41:38;;;;;;;;;;;21.90;99.80;;;;;;4591760;19;19911;-28
2022/05/12 05:43:09;;;;;;;;;;;22.00;99.70;;;;;;4592560;19;19919;-27
2022/05/12 05:44:40;;;;;;;;;;;22.00;98.80;;;;;;4593869;19;19923;-29
2022/05/12 05:46:11;;;;;;;;;;;21.90;98.00;;;;;;4594061;19;19915;-30
2022/05/12 05:47:45;;;;;;;;;;;22.20;99.90;;;;;;4593248;19;19919;-28
2022/05/12 05:49:16;;;;;;;;;;;22.30;99.90;;;;;;4593654;19;20263;-26
2022/05/12 05:54:31;;;;;;;;;;;22.30;99.90;;;;;;4591306;19;19915;-29
2022/05/12 05:56:03;;;;;;;;;;;22.40;99.90;;;;;;4591892;19;19915;-29
2022/05/12 05:57:34;;;;;;;;;;;22.30;99.90;;;;;;4593007;19;19946;-27
2022/05/12 05:59:05;;;;;;;;;;;22.10;99.90;;;;;;4591942;19;20408;-30
2022/05/12 06:00:37;;;;;;;;;;;22.00;99.30;;;;;;4592638;19;19919;-28
2022/05/12 06:02:08;;;;;;;;;;;21.90;99.90;;;;;;4592738;19;19966;-30
2022/05/12 06:03:39;;;;;;;;;;;21.90;98.30;;;;;;4592787;19;19946;-27
2022/05/12 06:05:10;;;;;;;;;;;21.90;99.90;;;;;;4593575;19;20322;-28
2022/05/12 06:06:42;;;;;;;;;;;22.00;99.90;;;;;;4592788;19;19919;-27
2022/05/12 06:08:14;;;;;;;;;;;22.10;99.90;;;;;;4592888;19;19918;-31
2022/05/12 06:09:45;;;;;;;;;;;22.30;99.90;;;;;;4593357;19;19922;-28
2022/05/12 06:11:16;;;;;;;;;;;22.60;99.90;;;;;;4593434;19;20281;-28
2022/05/12 06:12:49;;;;;;;;;;;22.50;99.90;;;;;;4592694;19;19997;-26
2022/05/12 06:14:19;;;;;;;;;;;22.50;99.90;;;;;;4591471;19;19919;-26
2022/05/12 06:15:50;;;;;;;;;;;22.80;99.90;;;;;;4592886;19;19978;-28
2022/05/12 06:17:21;;;;;;;;;;;23.00;99.90;;;;;;4592047;19;20090;-28
2022/05/12 06:18:53;;;;;;;;;;;23.00;99.90;;;;;;4592709;19;19919;-28
2022/05/12 06:20:24;;;;;;;;;;;23.00;99.90;;;;;;4593103;19;19948;-27
2022/05/12 06:21:55;;;;;;;;;;;23.00;99.90;;;;;;4592568;19;19922;-27
2022/05/12 06:23:27;;;;;;;;;;;22.90;99.90;;;;;;4594230;19;20242;-29
2022/05/12 06:24:58;;;;;;;;;;;22.80;99.90;;;;;;4593284;19;19942;-27
2022/05/12 06:26:29;;;;;;;;;;;22.80;99.90;;;;;;4592788;19;20367;-28
2022/05/12 06:28:01;;;;;;;;;;;22.80;99.90;;;;;;4591746;19;19918;-28
2022/05/12 06:29:32;;;;;;;;;;;22.70;99.90;;;;;;4591532;19;19927;-28
2022/05/12 06:31:03;;;;;;;;;;;22.70;99.90;;;;;;4593247;19;19923;-25
2022/05/12 06:32:34;;;;;;;;;;;22.70;99.90;;;;;;4592559;19;19922;-29
2022/05/12 06:34:05;;;;;;;;;;;22.60;99.90;;;;;;4591673;19;20245;-28
2022/05/12 06:35:37;;;;;;;;;;;22.60;99.90;;;;;;4592202;19;19915;-30
2022/05/12 06:37:10;;;;;;;;;;;22.60;99.90;;;;;;4592490;19;19922;-27
2022/05/12 06:38:41;;;;;;;;;;;22.50;99.90;;;;;;4592795;19;19934;-30
2022/05/12 06:40:12;;;;;;;;;;;22.50;99.80;;;;;;4593666;19;19944;-28
2022/05/12 06:41:43;;;;;;;;;;;22.40;99.20;;;;;;4592369;19;19923;-28
2022/05/12 06:43:14;;;;;;;;;;;22.50;98.30;;;;;;4592535;19;20329;-26
2022/05/12 06:44:45;;;;;;;;;;;22.50;99.00;;;;;;4592386;19;19922;-28
2022/05/12 06:46:17;;;;;;;;;;;22.40;99.70;;;;;;4592473;19;20338;-27
2022/05/12 06:47:50;;;;;;;;;;;22.30;99.90;;;;;;4593202;19;19918;-29
2022/05/12 06:49:21;;;;;;;;;;;22.20;99.90;;;;;;4592921;19;19951;-28
2022/05/12 06:50:52;;;;;;;;;;;22.20;99.90;;;;;;4592351;19;19918;-28
2022/05/12 06:52:24;;;;;;;;;;;22.10;99.90;;;;;;4590662;19;19922;-28
2022/05/12 06:53:55;;;;;;;;;;;22.00;99.90;;;;;;4589728;19;20657;-28
2022/05/12 06:55:29;;;;;;;;;;;21.90;99.90;;;;;;4591187;19;19915;-29
2022/05/12 06:57:00;;;;;;;;;;;21.80;99.90;;;;;;4590144;19;19919;-29
2022/05/12 06:58:31;;;;;;;;;;;21.70;99.80;;;;;;4590090;19;20304;-27
2022/05/12 07:00:04;;;;;;;6.72;2.58;;;21.60;99.90;;;;;;4590374;19;19922;-28
2022/05/12 07:01:36;;;;;;;2.33;1.90;;;21.70;99.90;;;;;;4588556;19;20142;-28
2022/05/12 07:03:07;;;;;;;6.25;2.58;;;21.70;99.90;;;;;;4589029;19;20471;-29
2022/05/12 07:04:39;;;;;;;2.70;2.30;;;21.70;99.90;;;;;;4589163;19;20006;-30
2022/05/12 07:06:10;;;;;;;2.50;2.13;;;21.60;99.50;;;;;;4588034;19;20026;-30
2022/05/12 07:07:43;;;;;;;2.35;1.95;;;21.50;99.30;;;;;;4591523;19;20099;-30
2022/05/12 07:09:18;;;;;;;2.83;2.20;;;21.40;99.20;;;;;;4591310;19;20041;-30
2022/05/12 07:10:49;;;;;;;2.40;1.85;;;21.40;99.10;;;;;;4590877;19;20414;-30
2022/05/12 07:12:21;;;;;;;1.85;1.40;;;21.40;99.10;;;;;;4590331;19;20483;-31
2022/05/12 07:13:52;;;;;;;4.03;1.60;;;21.40;99.80;;;;;;4589685;19;20018;-30
2022/05/12 07:15:27;;;;;;;2.15;1.50;;;21.50;99.90;;;;;;4588906;19;20328;-29
2022/05/12 07:16:58;;;;;;;1.70;1.40;;;21.60;99.90;;;;;;4588292;19;20010;-30
2022/05/12 07:18:30;;;;;;;6.50;2.10;;;21.50;98.90;;;;;;4589585;19;20018;-29
2022/05/12 07:27:19;;;;;;;1.42;1.20;;;21.30;98.30;;;;;;4590002;19;20022;-29
2022/05/12 07:28:50;;;;;;;3.83;2.20;;;21.20;98.20;;;;;;4589852;19;20040;-27
2022/05/12 07:30:21;;;;;;;1.20;0.80;;;21.30;99.90;;;;;;4590734;19;20085;-28
2022/05/12 07:31:52;;;;;;;1.05;0.98;;;21.40;98.40;;;;;;4589578;19;20052;-29
2022/05/12 07:33:23;;;;;;;0.93;0.80;;;21.40;98.10;;;;;;4589565;19;20471;-32
2022/05/12 07:34:54;;;;;;;0.98;0.82;;;21.40;97.90;;;;;;4589806;19;20472;-31
2022/05/12 07:36:30;;;;;;;0.90;0.77;;;21.50;97.80;;;;;;4589715;19;20014;-31
2022/05/12 07:38:02;;;;;;;0.85;0.75;;;21.60;97.60;;;;;;4589057;19;20396;-27
2022/05/12 07:39:34;;;;;;;1.38;0.93;;;21.60;97.40;;;;;;4588446;19;20015;-30
2022/05/12 07:41:07;;;;;;;0.88;0.65;;;21.70;97.10;;;;;;4589535;19;20082;-31
2022/05/12 07:42:38;;;;;;;1.15;0.77;;;21.80;97.10;;;;;;4588373;19;20015;-28
2022/05/12 07:44:10;;;;;;;0.50;0.50;;;21.80;96.80;;;;;;4589581;19;20026;-29
2022/05/12 07:45:41;;;;;;;6.30;2.38;;;21.90;96.80;;;;;;4590378;19;20019;-28
2022/05/12 07:47:15;;;;;;;3.42;1.60;;;21.90;99.10;;;;;;4590589;19;20010;-26
2022/05/12 07:48:46;;;;;;;6.03;2.65;;;22.10;97.80;;;;;;4589847;19;20018;-29
2022/05/12 07:50:17;;;;;;;2.63;1.70;;;22.50;99.90;;;;;;4583863;19;20540;-32
2022/05/12 07:51:48;;;;;;;2.42;1.00;;;22.60;98.30;;;;;;4566339;19;20018;-28
2022/05/12 07:53:19;;;;;;;1.33;0.68;;;22.60;97.10;;;;;;4588485;19;20034;-29
2022/05/12 07:54:50;;;;;;;0.70;0.52;;;22.50;96.30;;;;;;4587388;19;20006;-27
2022/05/12 07:56:22;;;;;;;;;;;22.40;96.20;;;;;;4588688;19;20035;-30
2022/05/12 07:57:53;;;;;;;4.05;1.73;;;22.30;96.30;;;;;;4588367;19;19919;-28
2022/05/12 07:59:27;;;;;;;1.30;0.57;;;22.30;99.40;;;;;;4589449;19;20048;-30
2022/05/12 08:00:58;;;;;;;4.20;2.15;;;22.30;98.00;;;;;;4589411;19;20026;-28
2022/05/12 08:02:31;;;;;;;1.40;0.93;;;22.50;99.20;;;;;;4588158;19;20497;-31
2022/05/12 08:04:03;;;;;;;1.50;1.00;;;22.50;98.30;;;;;;4583795;19;20408;-28
2022/05/12 08:05:34;;;;;;;4.18;1.30;;;22.40;97.40;;;;;;4591488;19;20089;-28
2022/05/12 08:07:05;;;;;;;0.45;0.43;;;22.50;98.40;;;;;;4593841;19;20010;-27
2022/05/12 08:08:37;;;;;;;0.95;0.82;;;22.40;97.00;;;;;;4594330;19;20014;-29
2022/05/12 08:10:09;;;;;;;5.20;2.25;;;22.30;97.50;;;;;;4593861;19;20487;-26
2022/05/12 08:11:41;;;;;;;4.85;2.13;;;22.40;99.90;;;;;;4593566;19;20014;-29
2022/05/12 08:13:16;;;;;;;7.55;2.15;;;22.60;99.90;;;;;;4594141;19;20015;-29
2022/05/12 08:14:47;;;;;;;4.63;2.05;;;22.70;99.90;;;;;;4595283;19;20015;-27
2022/05/12 08:16:19;;;;;;;7.32;2.63;;;22.80;99.70;;;;;;4593517;19;20018;-27
2022/05/12 08:17:51;;;;;;;2.70;1.70;;;22.80;99.90;;;;;;4592876;19;20035;-28
2022/05/12 08:19:22;;;;;;;5.07;0.80;;;22.80;99.50;;;;;;4593101;19;20026;-28
2022/05/12 08:20:54;;;;;;;2.85;1.15;;;22.60;99.00;;;;;;4594209;19;20033;-29
2022/05/12 08:22:25;;;;;;;1.63;1.00;;;22.40;99.30;;;;;;4593392;19;20018;-28
2022/05/12 08:23:56;;;;;;;3.88;1.45;;;22.30;98.80;;;;;;4593531;19;20018;-29
2022/05/12 08:25:27;;;;;;;1.33;0.70;;;22.20;99.40;;;;;;4593814;19;20014;-25
2022/05/12 08:26:59;;;;;;;4.15;1.00;;;22.10;98.00;;;;;;4593988;19;20022;-28
2022/05/12 08:28:30;;;;;;;2.28;0.93;;;22.10;97.80;;;;;;4592549;19;20034;-32
2022/05/12 08:30:07;;;;;;;4.95;1.55;;;22.10;98.70;;;;;;4593322;19;20018;-26
2022/05/12 08:31:39;;;;;;;5.25;1.88;;;22.10;99.90;;;;;;4591794;19;20048;-28
2022/05/12 08:33:11;;;;;;;4.95;1.92;;;22.30;99.90;;;;;;4591943;19;20013;-29
2022/05/12 08:34:42;;;;;;;2.88;1.10;;;22.40;99.90;;;;;;4593082;19;20225;-28
2022/05/12 08:36:13;;;;;;;6.88;1.65;;;22.40;99.90;;;;;;4593736;19;20058;-27
2022/05/12 08:37:43;;;;;;;4.50;1.80;;;22.50;99.90;;;;;;4593269;19;20032;-26
2022/05/12 08:39:15;;;;;;;3.13;1.60;;;22.50;99.90;;;;;;4594015;19;20407;-29
2022/05/12 08:40:57;;;;;;;;;;;22.60;99.90;;;;;;4594293;19;20007;-28
2022/05/12 08:42:46;;;;;;;4.68;1.30;;;22.50;99.90;;;;;;4592539;19;19943;-27
2022/05/12 08:44:20;;;;;;;2.85;1.52;;;22.60;99.90;;;;;;4593357;19;20032;-31
2022/05/12 08:45:52;;;;;;;2.65;1.80;;;22.50;99.90;;;;;;4591999;19;20022;-27
2022/05/12 08:47:28;;;;;;;3.28;1.30;;;22.80;99.90;;;;;;4593124;19;20011;-28
2022/05/12 08:49:21;;;;;;;4.78;1.65;;;22.80;99.90;;;;;;4592007;19;20078;-28
2022/05/12 08:50:53;;;;;;;2.00;1.30;;;22.80;99.90;;;;;;4593096;19;20034;-26
2022/05/12 08:52:41;;;;;;;4.05;1.42;;;22.80;99.90;;;;;;4592160;19;20030;-28
2022/05/12 08:54:13;;;;;;;3.78;1.45;;;22.60;99.90;;;;;;4591078;19;20081;-27
2022/05/12 08:55:46;;;;;;;2.72;1.38;;;22.50;99.90;;;;;;4592966;19;20003;-27
2022/05/12 08:57:38;;;;;;;2.25;1.05;;;22.20;99.90;;;;;;4593153;19;20027;-28
2022/05/12 08:59:09;;;;;;;1.60;1.10;;;22.00;99.90;;;;;;4592980;19;20010;-27
2022/05/12 09:00:56;;;;;;;0.73;0.65;;;21.90;99.90;;;;;;4592212;19;20039;-30
2022/05/12 09:02:54;;;;;;;2.80;1.20;;;21.80;99.90;;;;;;4591550;19;20472;-26
2022/05/12 09:04:55;;;;;;;1.27;0.80;;;21.80;99.90;;;;;;4592008;19;20002;-27
2022/05/12 09:06:31;;;;;;;1.33;0.68;;;21.70;99.90;;;;;;4592406;19;20010;-29